createdAt,value
2023-03-30T00:01:14.918Z,2.15
2023-03-30T00:03:45.766Z,3.33
2023-03-30T00:06:14.812Z,4.35
2023-03-30T00:08:41.589Z,3.15
2023-03-30T00:11:11.951Z,5.53
2023-03-30T00:13:39.449Z,2.97
2023-03-30T00:16:08.680Z,5.68
2023-03-30T00:18:36.713Z,1.77
2023-03-30T00:21:03.922Z,3.97
2023-03-30T00:23:31.402Z,4.15
2023-03-30T00:25:58.226Z,2.20
2023-03-30T00:28:26.289Z,2.78
2023-03-30T00:30:56.655Z,5.10
2023-03-30T00:33:33.516Z,3.20
2023-03-30T00:36:09.111Z,3.85
2023-03-30T00:38:35.728Z,4.45
2023-03-30T00:41:02.674Z,2.83
2023-03-30T00:43:29.516Z,3.35
2023-03-30T00:45:57.397Z,4.95
2023-03-30T00:48:40.713Z,4.88
2023-03-30T00:51:11.337Z,3.97
2023-03-30T00:53:45.848Z,6.05
2023-03-30T00:56:16.073Z,6.47
2023-03-30T00:58:44.732Z,4.57
2023-03-30T01:01:14.809Z,2.42
2023-03-30T01:03:48.068Z,3.97
2023-03-30T01:06:18.059Z,5.32
2023-03-30T01:08:45.298Z,7.28
2023-03-30T01:11:11.939Z,2.40
2023-03-30T01:13:42.255Z,4.25
2023-03-30T01:16:27.343Z,5.10
2023-03-30T01:19:16.204Z,4.82
2023-03-30T01:22:01.422Z,4.18
2023-03-30T01:25:06.055Z,2.83
2023-03-30T01:27:50.750Z,2.55
2023-03-30T01:30:41.446Z,4.75
2023-03-30T01:33:21.171Z,3.65
2023-03-30T01:36:25.499Z,3.13
2023-03-30T01:39:10.251Z,1.75
2023-03-30T01:42:03.055Z,3.88
2023-03-30T01:44:40.835Z,4.95
2023-03-30T01:47:33.960Z,7.22
2023-03-30T01:50:15.475Z,5.43
2023-03-30T01:53:08.726Z,3.45
2023-03-30T01:55:42.073Z,7.53
2023-03-30T01:58:18.610Z,3.30
2023-03-30T02:00:50.317Z,5.40
2023-03-30T02:03:28.523Z,4.22
2023-03-30T02:06:03.940Z,2.65
2023-03-30T02:08:33.661Z,6.93
2023-03-30T02:11:01.908Z,2.13
2023-03-30T02:13:31.733Z,5.07
2023-03-30T02:16:07.405Z,3.97
2023-03-30T02:18:35.200Z,5.80
2023-03-30T02:21:02.271Z,2.92
2023-03-30T02:23:34.982Z,3.75
2023-03-30T02:26:02.053Z,3.55
2023-03-30T02:28:28.604Z,2.42
2023-03-30T02:30:55.334Z,3.60
2023-03-30T02:33:41.527Z,5.72
2023-03-30T02:36:17.787Z,4.70
2023-03-30T02:41:42.752Z,3.40
2023-03-30T02:44:20.368Z,4.22
2023-03-30T02:47:07.912Z,3.05
2023-03-30T02:50:00.496Z,3.10
2023-03-30T02:52:46.384Z,2.90
2023-03-30T02:55:37.472Z,6.32
2023-03-30T02:58:23.790Z,3.22
2023-03-30T03:03:44.157Z,2.25
2023-03-30T03:06:14.607Z,7.85
2023-03-30T03:08:44.473Z,3.33
2023-03-30T03:11:11.557Z,3.10
2023-03-30T03:13:38.779Z,1.90
2023-03-30T03:16:08.001Z,4.40
2023-03-30T03:18:39.928Z,3.45
2023-03-30T03:21:08.241Z,2.47
2023-03-30T03:23:36.474Z,3.42
2023-03-30T03:26:04.490Z,2.80
2023-03-30T03:28:31.259Z,3.78
2023-03-30T03:30:59.897Z,3.92
2023-03-30T03:33:27.519Z,3.25
2023-03-30T03:35:55.055Z,6.82
2023-03-30T03:38:22.164Z,5.13
2023-03-30T03:40:57.061Z,5.07
2023-03-30T03:43:24.509Z,4.33
2023-03-30T03:45:51.901Z,5.63
2023-03-30T03:48:20.523Z,3.58
2023-03-30T03:50:54.341Z,1.75
2023-03-30T03:53:21.084Z,3.65
2023-03-30T03:55:47.748Z,5.47
2023-03-30T03:58:14.782Z,4.65
2023-03-30T04:00:41.445Z,1.95
2023-03-30T04:03:09.346Z,4.97
2023-03-30T04:05:36.314Z,3.45
2023-03-30T04:08:03.075Z,4.18
2023-03-30T04:10:30.215Z,2.85
2023-03-30T04:12:57.876Z,4.30
2023-03-30T04:15:25.426Z,4.38
2023-03-30T04:17:58.174Z,5.47
2023-03-30T04:20:29.532Z,5.75
2023-03-30T04:22:56.990Z,4.57
2023-03-30T04:25:29.112Z,3.75
2023-03-30T04:27:57.058Z,3.25
2023-03-30T04:30:24.537Z,2.15
2023-03-30T04:33:04.635Z,4.05
2023-03-30T04:35:32.836Z,2.75
2023-03-30T04:38:02.166Z,2.08
2023-03-30T04:40:29.137Z,2.13
2023-03-30T04:43:02.175Z,3.42
2023-03-30T04:45:29.781Z,3.25
2023-03-30T04:47:56.512Z,5.45
2023-03-30T04:50:23.096Z,3.10
2023-03-30T04:52:49.647Z,4.22
2023-03-30T04:55:16.239Z,5.82
2023-03-30T04:57:42.798Z,6.38
2023-03-30T05:00:09.958Z,6.20
2023-03-30T05:02:36.624Z,6.88
2023-03-30T05:05:03.534Z,4.28
2023-03-30T05:07:30.246Z,5.22
2023-03-30T05:09:56.831Z,4.07
2023-03-30T05:12:23.368Z,6.57
2023-03-30T05:14:49.950Z,6.97
2023-03-30T05:17:16.598Z,7.20
2023-03-30T05:19:43.185Z,7.18
2023-03-30T05:22:09.793Z,7.03
2023-03-30T05:24:36.387Z,9.15
2023-03-30T05:27:04.668Z,6.22
2023-03-30T05:29:31.781Z,7.82
2023-03-30T05:31:58.741Z,11.13
2023-03-30T05:34:25.313Z,7.70
2023-03-30T05:36:51.906Z,6.13
2023-03-30T05:39:18.452Z,6.43
2023-03-30T05:41:45.032Z,9.38
2023-03-30T05:44:12.084Z,11.15
2023-03-30T05:46:38.672Z,9.20
2023-03-30T05:49:05.392Z,9.13
2023-03-30T05:51:31.952Z,8.32
2023-03-30T05:53:58.566Z,13.10
2023-03-30T05:56:25.238Z,13.45
2023-03-30T05:58:51.886Z,10.38
2023-03-30T06:01:20.830Z,9.70
2023-03-30T06:03:48.553Z,14.85
2023-03-30T06:06:15.341Z,8.35
2023-03-30T06:08:42.061Z,12.93
2023-03-30T06:11:08.805Z,4.82
2023-03-30T06:13:35.420Z,10.13
2023-03-30T06:16:03.627Z,7.22
2023-03-30T06:18:30.807Z,12.48
2023-03-30T06:20:57.934Z,5.47
2023-03-30T06:23:24.546Z,8.38
2023-03-30T06:25:54.667Z,11.98
2023-03-30T06:28:22.039Z,8.18
2023-03-30T06:30:49.563Z,8.05
2023-03-30T06:33:17.699Z,12.48
2023-03-30T06:35:52.556Z,14.38
2023-03-30T06:38:20.663Z,10.07
2023-03-30T06:40:47.680Z,10.32
2023-03-30T06:43:20.564Z,5.93
2023-03-30T06:45:55.482Z,7.22
2023-03-30T06:48:24.095Z,9.30
2023-03-30T06:50:52.170Z,8.85
2023-03-30T06:53:20.020Z,6.50
2023-03-30T06:55:53.746Z,5.30
2023-03-30T06:58:20.637Z,9.93
2023-03-30T07:00:48.049Z,6.60
2023-03-30T07:03:17.394Z,9.40
2023-03-30T07:05:44.019Z,7.50
2023-03-30T07:08:10.580Z,7.43
2023-03-30T07:10:37.127Z,6.30
2023-03-30T07:13:03.814Z,4.40
2023-03-30T07:15:30.396Z,4.05
2023-03-30T07:17:57.069Z,5.05
2023-03-30T07:20:23.719Z,6.55
2023-03-30T07:22:50.927Z,4.10
2023-03-30T07:25:17.595Z,7.97
2023-03-30T07:27:44.281Z,11.82
2023-03-30T07:30:21.241Z,4.75
2023-03-30T07:32:50.982Z,6.72
2023-03-30T07:35:18.540Z,6.72
2023-03-30T07:37:45.268Z,7.18
2023-03-30T07:40:12.839Z,5.65
2023-03-30T07:42:39.736Z,7.30
2023-03-30T07:45:06.890Z,4.78
2023-03-30T07:47:33.627Z,4.72
2023-03-30T07:50:00.375Z,8.10
2023-03-30T07:52:27.478Z,8.45
2023-03-30T07:54:57.040Z,4.65
2023-03-30T07:57:24.567Z,4.82
2023-03-30T07:59:51.532Z,5.28
2023-03-30T08:02:18.504Z,8.23
2023-03-30T08:04:45.151Z,4.40
2023-03-30T08:07:12.941Z,7.50
2023-03-30T08:09:39.599Z,4.65
2023-03-30T08:12:06.887Z,6.68
2023-03-30T08:14:33.476Z,6.15
2023-03-30T08:17:00.095Z,5.78
2023-03-30T08:19:27.131Z,3.53
2023-03-30T08:21:53.754Z,7.45
2023-03-30T08:24:20.508Z,5.72
2023-03-30T08:26:47.219Z,5.55
2023-03-30T08:29:13.905Z,5.53
2023-03-30T08:31:40.498Z,7.25
2023-03-30T08:34:08.663Z,7.35
2023-03-30T08:36:35.394Z,3.33
2023-03-30T08:39:04.697Z,4.32
2023-03-30T08:41:52.882Z,4.25
2023-03-30T08:44:25.961Z,5.72
2023-03-30T08:46:53.815Z,5.43
2023-03-30T08:49:21.304Z,5.93
2023-03-30T08:51:51.106Z,5.80
2023-03-30T08:54:21.940Z,4.93
2023-03-30T08:57:20.818Z,4.93
2023-03-30T09:00:22.072Z,4.65
2023-03-30T09:02:54.747Z,4.45
2023-03-30T09:05:32.599Z,7.32
2023-03-30T09:08:08.268Z,7.93
2023-03-30T09:10:40.055Z,4.30
2023-03-30T09:13:10.470Z,6.10
2023-03-30T09:15:43.042Z,4.93
2023-03-30T09:18:09.611Z,6.70
2023-03-30T09:20:40.065Z,4.43
2023-03-30T09:23:12.999Z,4.72
2023-03-30T09:25:46.379Z,5.93
2023-03-30T09:28:31.494Z,6.40
2023-03-30T09:31:09.437Z,3.17
2023-03-30T09:33:46.404Z,6.47
2023-03-30T09:36:17.634Z,7.25
2023-03-30T09:38:45.331Z,5.88
2023-03-30T09:41:27.876Z,4.88
2023-03-30T09:43:58.500Z,6.47
2023-03-30T09:46:25.242Z,6.78
2023-03-30T09:48:51.998Z,6.18
2023-03-30T09:51:20.779Z,4.80
2023-03-30T09:53:50.651Z,6.10
2023-03-30T09:56:18.598Z,7.97
2023-03-30T09:58:45.314Z,4.22
2023-03-30T10:01:14.880Z,8.25
2023-03-30T10:03:43.833Z,3.83
2023-03-30T10:06:13.236Z,5.47
2023-03-30T10:08:51.192Z,5.63
2023-03-30T10:11:34.494Z,5.07
2023-03-30T10:14:01.477Z,5.85
2023-03-30T10:16:33.220Z,6.13
2023-03-30T10:19:16.792Z,5.88
2023-03-30T10:21:46.925Z,7.35
2023-03-30T10:24:28.789Z,7.93
2023-03-30T10:27:06.175Z,4.40
2023-03-30T10:29:32.757Z,3.53
2023-03-30T10:32:10.111Z,6.93
2023-03-30T10:34:41.548Z,6.35
2023-03-30T10:37:16.507Z,6.93
2023-03-30T10:39:47.024Z,6.90
2023-03-30T10:42:22.067Z,5.40
2023-03-30T10:44:55.077Z,7.72
2023-03-30T10:48:03.354Z,6.88
2023-03-30T10:50:55.501Z,5.97
2023-03-30T10:53:59.633Z,5.40
2023-03-30T10:56:48.179Z,4.95
2023-03-30T10:59:30.669Z,4.32
2023-03-30T11:02:17.085Z,4.10
2023-03-30T11:04:48.142Z,5.40
2023-03-30T11:07:30.017Z,4.50
2023-03-30T11:10:06.017Z,5.25
2023-03-30T11:12:38.080Z,8.73
2023-03-30T11:15:31.368Z,6.53
2023-03-30T11:18:07.110Z,6.25
2023-03-30T11:23:18.648Z,5.10
2023-03-30T11:26:08.684Z,4.55
2023-03-30T11:28:54.057Z,4.95
2023-03-30T11:31:40.654Z,8.83
2023-03-30T11:34:32.131Z,7.15
2023-03-30T11:37:18.068Z,5.30
2023-03-30T11:39:55.257Z,5.28
2023-03-30T11:42:27.106Z,5.50
2023-03-30T11:44:53.838Z,5.75
2023-03-30T11:47:38.685Z,6.13
2023-03-30T11:50:49.741Z,5.45
2023-03-30T11:53:38.309Z,6.90
2023-03-30T11:56:07.916Z,6.20
2023-03-30T11:59:01.642Z,5.90
2023-03-30T12:01:56.893Z,7.70
2023-03-30T12:04:49.606Z,5.40
2023-03-30T12:07:44.475Z,6.35
2023-03-30T12:10:29.743Z,5.38
2023-03-30T12:12:56.992Z,6.05
2023-03-30T12:15:45.046Z,4.40
2023-03-30T12:18:29.169Z,4.82
2023-03-30T12:20:58.466Z,8.32
2023-03-30T12:23:52.713Z,3.90
2023-03-30T12:26:26.951Z,4.90
2023-03-30T12:29:11.223Z,3.92
2023-03-30T12:31:51.293Z,10.70
2023-03-30T12:34:18.598Z,3.58
2023-03-30T12:36:54.906Z,7.03
2023-03-30T12:39:34.150Z,7.05
2023-03-30T12:42:07.996Z,6.05
2023-03-30T12:44:39.844Z,7.07
2023-03-30T12:47:33.662Z,9.88
2023-03-30T12:50:28.813Z,8.68
2023-03-30T12:53:26.108Z,4.93
2023-03-30T12:56:08.599Z,5.30
2023-03-30T12:59:08.336Z,7.28
2023-03-30T13:01:56.362Z,5.53
2023-03-30T13:04:26.656Z,4.28
2023-03-30T13:06:58.117Z,5.10
2023-03-30T13:09:27.955Z,7.15
2023-03-30T13:11:54.458Z,6.97
2023-03-30T13:14:30.315Z,5.78
2023-03-30T13:16:56.947Z,4.82
2023-03-30T13:19:32.713Z,5.40
2023-03-30T13:25:00.135Z,6.75
2023-03-30T13:27:31.659Z,6.20
2023-03-30T13:30:07.923Z,7.45
2023-03-30T13:32:43.405Z,7.88
2023-03-30T13:36:08.914Z,6.20
2023-03-30T13:38:50.319Z,6.10
2023-03-30T13:41:19.454Z,5.53
2023-03-30T13:44:07.923Z,5.30
2023-03-30T13:46:52.769Z,4.30
2023-03-30T13:49:29.364Z,6.65
2023-03-30T13:52:06.693Z,5.50
2023-03-30T13:54:34.928Z,5.80
2023-03-30T13:57:09.572Z,6.10
2023-03-30T13:59:40.273Z,7.40
2023-03-30T14:02:12.150Z,6.15
2023-03-30T14:04:39.056Z,7.53
2023-03-30T14:07:17.564Z,7.25
2023-03-30T14:10:01.450Z,5.85
2023-03-30T14:12:28.118Z,4.45
2023-03-30T14:14:54.727Z,5.07
2023-03-30T14:17:24.762Z,7.68
2023-03-30T14:20:11.206Z,7.82
2023-03-30T14:22:43.165Z,5.93
2023-03-30T14:25:29.820Z,4.90
2023-03-30T14:27:57.826Z,5.38
2023-03-30T14:30:29.222Z,4.72
2023-03-30T14:33:14.259Z,5.00
2023-03-30T14:35:52.961Z,8.02
2023-03-30T14:38:24.895Z,7.57
2023-03-30T14:40:53.634Z,5.22
2023-03-30T14:43:26.833Z,4.75
2023-03-30T14:45:56.670Z,8.75
2023-03-30T14:48:32.289Z,5.53
2023-03-30T14:51:01.694Z,7.30
2023-03-30T14:53:30.937Z,7.30
2023-03-30T14:56:00.663Z,6.22
2023-03-30T14:58:31.309Z,6.68
2023-03-30T15:01:01.116Z,5.45
2023-03-30T15:03:34.415Z,5.72
2023-03-30T15:06:04.715Z,8.07
2023-03-30T15:08:33.692Z,5.38
2023-03-30T15:11:12.799Z,8.93
2023-03-30T15:13:43.648Z,6.75
2023-03-30T15:16:17.882Z,7.00
2023-03-30T15:18:44.752Z,5.00
2023-03-30T15:21:13.723Z,4.90
2023-03-30T15:23:43.491Z,5.32
2023-03-30T15:26:12.231Z,7.93
2023-03-30T15:28:46.054Z,6.82
2023-03-30T15:31:14.684Z,6.80
2023-03-30T15:33:45.875Z,7.95
2023-03-30T15:36:12.794Z,6.15
2023-03-30T15:38:58.950Z,7.10
2023-03-30T15:41:44.062Z,6.88
2023-03-30T15:44:13.137Z,8.55
2023-03-30T15:46:40.900Z,6.03
2023-03-30T15:49:09.471Z,9.23
2023-03-30T15:51:39.885Z,9.13
2023-03-30T15:54:17.847Z,5.28
2023-03-30T15:57:06.327Z,6.82
2023-03-30T15:59:39.272Z,7.13
2023-03-30T16:02:20.016Z,6.25
2023-03-30T16:04:47.267Z,5.82
2023-03-30T16:07:25.062Z,7.30
2023-03-30T16:09:52.317Z,7.35
2023-03-30T16:12:23.888Z,10.35
2023-03-30T16:14:51.166Z,6.60
2023-03-30T16:17:18.640Z,4.65
2023-03-30T16:19:45.972Z,7.80
2023-03-30T16:22:14.372Z,7.95
2023-03-30T16:24:42.170Z,7.30
2023-03-30T16:27:11.396Z,6.15
2023-03-30T16:29:37.939Z,6.18
2023-03-30T16:32:04.882Z,7.47
2023-03-30T16:34:31.738Z,8.15
2023-03-30T16:36:58.334Z,6.60
2023-03-30T16:39:28.150Z,7.10
2023-03-30T16:41:55.990Z,6.45
2023-03-30T16:44:24.931Z,5.35
2023-03-30T16:46:52.334Z,9.57
2023-03-30T16:49:24.635Z,5.22
2023-03-30T16:51:54.482Z,7.18
2023-03-30T16:54:31.488Z,8.50
2023-03-30T16:57:00.424Z,8.25
2023-03-30T16:59:30.277Z,7.13
2023-03-30T17:01:57.042Z,11.45
2023-03-30T17:04:23.642Z,6.25
2023-03-30T17:06:50.288Z,5.93
2023-03-30T17:09:19.105Z,4.78
2023-03-30T17:11:47.775Z,6.28
2023-03-30T17:14:15.172Z,4.22
2023-03-30T17:16:42.562Z,13.73
2023-03-30T17:19:13.751Z,7.82
2023-03-30T17:21:43.002Z,4.55
2023-03-30T17:24:13.219Z,5.32
2023-03-30T17:26:40.988Z,7.03
2023-03-30T17:29:07.559Z,6.20
2023-03-30T17:31:34.223Z,5.95
2023-03-30T17:34:00.872Z,5.30
2023-03-30T17:36:28.692Z,4.50
2023-03-30T17:38:56.721Z,10.10
2023-03-30T17:41:23.484Z,3.70
2023-03-30T17:43:50.185Z,5.82
2023-03-30T17:46:19.662Z,6.88
2023-03-30T17:48:46.492Z,7.05
2023-03-30T17:51:13.063Z,9.27
2023-03-30T17:53:39.652Z,5.28
2023-03-30T17:56:06.736Z,7.43
2023-03-30T17:58:36.094Z,4.57
2023-03-30T18:01:08.754Z,8.40
2023-03-30T18:03:38.461Z,7.00
2023-03-30T18:06:05.778Z,6.35
2023-03-30T18:08:32.429Z,10.75
2023-03-30T18:11:00.739Z,7.93
2023-03-30T18:13:29.535Z,4.68
2023-03-30T18:15:58.455Z,7.18
2023-03-30T18:18:28.184Z,5.80
2023-03-30T18:21:03.114Z,5.13
2023-03-30T18:23:33.216Z,5.03
2023-03-30T18:25:59.902Z,6.88
2023-03-30T18:28:27.883Z,5.65
2023-03-30T18:30:57.505Z,5.22
2023-03-30T18:33:25.256Z,4.20
2023-03-30T18:35:53.352Z,6.57
2023-03-30T18:38:21.683Z,6.70
2023-03-30T18:40:50.475Z,6.43
2023-03-30T18:43:17.178Z,4.75
2023-03-30T18:45:46.572Z,5.90
2023-03-30T18:48:15.109Z,5.20
2023-03-30T18:50:50.798Z,6.45
2023-03-30T18:53:20.295Z,3.72
2023-03-30T18:55:49.123Z,4.38
2023-03-30T18:58:23.235Z,6.15
2023-03-30T19:00:51.919Z,7.07
2023-03-30T19:03:19.615Z,6.47
2023-03-30T19:05:46.469Z,5.18
2023-03-30T19:08:18.990Z,4.35
2023-03-30T19:10:48.333Z,4.88
2023-03-30T19:13:17.065Z,5.18
2023-03-30T19:15:45.795Z,6.03
2023-03-30T19:18:12.844Z,4.30
2023-03-30T19:20:41.321Z,4.82
2023-03-30T19:23:11.200Z,5.55
2023-03-30T19:25:38.168Z,4.40
2023-03-30T19:28:06.226Z,5.50
2023-03-30T19:30:36.166Z,6.38
2023-03-30T19:33:07.315Z,5.97
2023-03-30T19:35:34.635Z,5.43
2023-03-30T19:38:01.535Z,4.63
2023-03-30T19:40:28.156Z,3.45
2023-03-30T19:42:54.846Z,4.28
2023-03-30T19:45:23.642Z,4.25
2023-03-30T19:47:51.854Z,4.20
2023-03-30T19:50:23.201Z,3.05
2023-03-30T19:52:51.002Z,5.88
2023-03-30T19:55:19.678Z,6.00
2023-03-30T19:57:47.035Z,3.55
2023-03-30T20:00:16.071Z,4.75
2023-03-30T20:02:45.781Z,3.10
2023-03-30T20:05:13.436Z,4.57
2023-03-30T20:07:40.777Z,8.35
2023-03-30T20:10:10.351Z,3.72
2023-03-30T20:12:37.549Z,4.18
2023-03-30T20:15:06.245Z,5.13
2023-03-30T20:17:34.235Z,4.80
2023-03-30T20:20:07.082Z,4.65
2023-03-30T20:22:39.093Z,5.57
2023-03-30T20:25:07.891Z,9.10
2023-03-30T20:27:35.768Z,10.07
2023-03-30T20:30:04.088Z,9.18
2023-03-30T20:32:31.698Z,9.82
2023-03-30T20:34:58.302Z,8.73
2023-03-30T20:37:24.982Z,12.00
2023-03-30T20:39:51.580Z,13.60
2023-03-30T20:42:25.889Z,11.40
2023-03-30T20:44:53.440Z,13.50
2023-03-30T20:47:26.113Z,14.48
2023-03-30T20:49:55.496Z,13.80
2023-03-30T20:52:23.871Z,12.10
2023-03-30T20:54:51.435Z,17.13
2023-03-30T20:57:19.481Z,14.38
2023-03-30T20:59:48.135Z,17.48
2023-03-30T21:02:15.705Z,14.85
2023-03-30T21:04:43.305Z,16.08
2023-03-30T21:07:10.484Z,17.95
2023-03-30T21:09:38.322Z,16.35
2023-03-30T21:12:05.590Z,15.68
2023-03-30T21:14:32.163Z,14.30
2023-03-30T21:16:58.853Z,14.55
2023-03-30T21:19:25.490Z,16.38
2023-03-30T21:21:52.029Z,20.92
2023-03-30T21:24:18.753Z,17.65
2023-03-30T21:26:45.328Z,18.50
2023-03-30T21:29:12.003Z,14.85
2023-03-30T21:31:38.718Z,18.48
2023-03-30T21:34:07.111Z,16.98
2023-03-30T21:36:33.770Z,13.15
2023-03-30T21:39:00.898Z,16.25
2023-03-30T21:41:28.870Z,16.42
2023-03-30T21:43:55.531Z,14.77
2023-03-30T21:46:24.092Z,16.92
2023-03-30T21:48:53.920Z,16.58
2023-03-30T21:51:29.547Z,16.90
2023-03-30T21:53:57.579Z,20.00
2023-03-30T21:56:27.589Z,18.15
2023-03-30T21:58:54.361Z,17.55
2023-03-30T22:01:24.182Z,16.98
2023-03-30T22:03:51.991Z,16.63
2023-03-30T22:06:18.865Z,14.82
2023-03-30T22:08:45.913Z,13.88
2023-03-30T22:11:15.939Z,12.43
2023-03-30T22:13:43.246Z,14.40
2023-03-30T22:16:19.980Z,13.77
2023-03-30T22:18:47.072Z,9.38
2023-03-30T22:21:17.188Z,13.07
2023-03-30T22:23:44.165Z,17.65
2023-03-30T22:26:11.979Z,13.05
2023-03-30T22:28:38.807Z,15.35
2023-03-30T22:31:10.835Z,16.38
2023-03-30T22:33:37.966Z,17.92
2023-03-30T22:36:05.391Z,14.73
2023-03-30T22:38:32.587Z,15.55
2023-03-30T22:41:07.365Z,18.38
2023-03-30T22:43:35.987Z,13.40
2023-03-30T22:46:03.857Z,10.27
2023-03-30T22:48:30.514Z,16.83
2023-03-30T22:51:02.177Z,13.65
2023-03-30T22:53:32.491Z,16.83
2023-03-30T22:55:59.860Z,17.58
2023-03-30T22:58:27.005Z,15.75
2023-03-30T23:00:59.699Z,13.02
2023-03-30T23:03:26.317Z,19.75
2023-03-30T23:05:53.383Z,14.30
2023-03-30T23:08:20.003Z,12.75
2023-03-30T23:10:46.595Z,17.73
2023-03-30T23:13:14.137Z,11.75
2023-03-30T23:15:40.828Z,13.77
2023-03-30T23:18:07.830Z,12.88
2023-03-30T23:20:34.540Z,12.15
2023-03-30T23:23:01.160Z,16.63
2023-03-30T23:25:27.757Z,9.70
2023-03-30T23:27:54.420Z,12.23
2023-03-30T23:30:21.512Z,12.18
2023-03-30T23:32:48.134Z,10.93
2023-03-30T23:35:14.773Z,15.70
2023-03-30T23:37:41.353Z,11.18
2023-03-30T23:40:08.488Z,14.27
2023-03-30T23:42:35.105Z,12.93
2023-03-30T23:45:01.814Z,10.55
2023-03-30T23:47:28.594Z,11.75
2023-03-30T23:49:55.252Z,15.13
2023-03-30T23:52:21.849Z,13.35
2023-03-30T23:54:52.305Z,13.23
2023-03-30T23:57:20.005Z,15.00
2023-03-30T23:59:46.625Z,12.43
